Amelia, West Virginia
Current Conditions -  °F | °C
As of 6:54 PM on Monday 22 Dec 2014 (Local Time) from KCRW Reporting Station
Broken Clouds Broken Clouds  
Wind Chill: 44°   Ceiling: 15000
Heat Index: 48°   Visibility: 10mi
Dew Point: 38°   Wind: 9mph
Humidity: 68%   Direction: 120°ESE
Pressure: 29.88"   Gusts: NA
Location:  38.2755°N, 81.3011°W
Report Text: KCRW 222354Z 12008KT 10SM SCT100 BKN150 09/03 A2988 RMK AO2 SLP121 T00890033 10128 20089 56014
Loading
Personal Weather Stations






























Interactive Weather Map New forecast layout! Learn more

10-Day Weather Forecast

Advertisements
Track Severe Weather on mobile